createdAt,value
2023-05-16T00:01:39.680Z,11.75
2023-05-16T00:06:43.846Z,11.70
2023-05-16T00:11:48.314Z,11.70
2023-05-16T00:16:51.934Z,11.67
2023-05-16T00:21:56.104Z,11.67
2023-05-16T00:26:58.828Z,11.66
2023-05-16T00:32:02.038Z,11.61
2023-05-16T00:37:06.906Z,11.58
2023-05-16T00:42:09.599Z,11.52
2023-05-16T00:47:14.239Z,11.47
2023-05-16T00:52:19.009Z,11.42
2023-05-16T00:57:22.219Z,11.38
2023-05-16T01:02:28.436Z,11.37
2023-05-16T01:07:32.668Z,11.24
2023-05-16T01:12:42.815Z,11.26
2023-05-16T01:17:54.580Z,11.17
2023-05-16T01:23:13.685Z,11.07
2023-05-16T01:28:18.093Z,11.04
2023-05-16T01:33:20.877Z,11.02
2023-05-16T01:38:27.326Z,11.02
2023-05-16T01:43:35.456Z,10.93
2023-05-16T01:48:45.946Z,10.97
2023-05-16T01:53:51.413Z,10.95
2023-05-16T01:58:57.045Z,10.95
2023-05-16T02:04:00.502Z,10.92
2023-05-16T02:09:03.317Z,10.95
2023-05-16T02:14:07.459Z,10.86
2023-05-16T02:19:10.959Z,10.82
2023-05-16T02:24:14.803Z,10.81
2023-05-16T02:29:19.667Z,10.74
2023-05-16T02:34:22.543Z,10.71
2023-05-16T02:39:25.287Z,10.66
2023-05-16T02:44:29.375Z,10.62
2023-05-16T02:49:34.597Z,10.57
2023-05-16T02:54:37.275Z,10.52
2023-05-16T02:59:42.034Z,10.46
2023-05-16T03:04:44.814Z,10.46
2023-05-16T03:09:47.521Z,10.44
2023-05-16T03:14:51.811Z,10.42
2023-05-16T03:19:55.072Z,10.33
2023-05-16T03:24:57.757Z,10.31
2023-05-16T03:30:03.018Z,10.31
2023-05-16T03:35:06.391Z,10.27
2023-05-16T03:40:11.209Z,10.23
2023-05-16T03:45:15.353Z,10.24
2023-05-16T03:50:18.299Z,10.17
2023-05-16T03:55:21.301Z,10.19
2023-05-16T04:00:28.097Z,10.11
2023-05-16T04:05:33.083Z,10.08
2023-05-16T04:10:36.766Z,10.03
2023-05-16T04:15:42.145Z,9.97
2023-05-16T04:20:47.523Z,9.96
2023-05-16T04:25:50.656Z,9.91
2023-05-16T04:30:54.828Z,9.89
2023-05-16T04:35:58.639Z,9.81
2023-05-16T04:41:01.910Z,9.85
2023-05-16T04:46:07.836Z,9.86
2023-05-16T04:51:10.677Z,9.83
2023-05-16T04:56:13.661Z,9.85
2023-05-16T05:01:17.826Z,9.88
2023-05-16T05:06:21.122Z,9.87
2023-05-16T05:11:23.896Z,9.92
2023-05-16T05:16:29.113Z,9.95
2023-05-16T05:21:33.216Z,9.94
2023-05-16T05:26:37.636Z,10.02
2023-05-16T05:31:42.147Z,10.05
2023-05-16T05:36:46.135Z,10.10
2023-05-16T05:41:48.895Z,10.19
2023-05-16T05:46:55.074Z,10.25
2023-05-16T05:51:58.131Z,10.23
2023-05-16T05:57:01.050Z,10.19
2023-05-16T06:02:10.170Z,10.14
2023-05-16T06:07:16.812Z,10.01
2023-05-16T06:12:19.585Z,10.12
2023-05-16T06:17:24.377Z,10.08
2023-05-16T06:22:27.220Z,10.23
2023-05-16T06:27:30.243Z,10.25
2023-05-16T06:32:34.345Z,10.41
2023-05-16T06:37:37.904Z,10.36
2023-05-16T06:42:43.013Z,10.15
2023-05-16T06:47:49.326Z,10.16
2023-05-16T06:52:52.281Z,10.36
2023-05-16T06:57:57.893Z,10.10
2023-05-16T07:03:03.366Z,10.26
2023-05-16T07:08:08.108Z,10.27
2023-05-16T07:13:11.057Z,10.42
2023-05-16T07:18:16.964Z,10.28
2023-05-16T07:23:19.912Z,10.27
2023-05-16T07:28:23.675Z,10.45
2023-05-16T07:33:28.561Z,10.35
2023-05-16T07:38:31.461Z,10.21
2023-05-16T07:43:35.343Z,10.07
2023-05-16T07:48:39.518Z,10.14
2023-05-16T07:53:43.355Z,9.96
2023-05-16T07:58:48.954Z,9.97
2023-05-16T08:03:54.337Z,9.86
2023-05-16T08:08:57.229Z,10.27
2023-05-16T08:14:00.301Z,10.97
2023-05-16T08:19:04.543Z,11.25
2023-05-16T08:24:08.051Z,10.97
2023-05-16T08:29:13.936Z,11.15
2023-05-16T08:34:18.368Z,11.35
2023-05-16T08:39:22.322Z,11.26
2023-05-16T08:44:27.003Z,10.83
2023-05-16T08:49:33.452Z,10.75
2023-05-16T08:54:37.274Z,10.82
2023-05-16T08:59:41.906Z,10.99
2023-05-16T09:04:49.395Z,11.15
2023-05-16T09:09:52.232Z,12.27
2023-05-16T09:14:56.399Z,12.70
2023-05-16T09:20:09.794Z,12.18
2023-05-16T09:25:28.476Z,11.98
2023-05-16T09:30:37.432Z,13.01
2023-05-16T09:35:45.482Z,14.33
2023-05-16T09:40:51.823Z,13.95
2023-05-16T09:45:55.514Z,13.50
2023-05-16T09:51:04.116Z,13.07
2023-05-16T09:56:08.664Z,13.56
2023-05-16T10:01:12.785Z,13.78
2023-05-16T10:06:20.461Z,14.33
2023-05-16T10:11:28.112Z,14.14
2023-05-16T10:16:31.724Z,14.53
2023-05-16T10:21:38.643Z,15.12
2023-05-16T10:26:41.474Z,15.42
2023-05-16T10:31:47.048Z,15.26
2023-05-16T10:36:54.019Z,15.03
2023-05-16T10:41:57.436Z,14.70
2023-05-16T10:47:00.859Z,15.13
2023-05-16T10:52:09.815Z,15.35
2023-05-16T10:57:17.455Z,15.28
2023-05-16T11:02:27.517Z,16.53
2023-05-16T11:07:34.543Z,16.00
2023-05-16T11:12:45.039Z,15.01
2023-05-16T11:17:48.350Z,16.47
2023-05-16T11:22:53.452Z,15.45
2023-05-16T11:27:57.398Z,15.03
2023-05-16T11:33:01.539Z,16.65
2023-05-16T11:38:05.923Z,16.51
2023-05-16T11:43:08.820Z,16.69
2023-05-16T11:48:16.586Z,17.23
2023-05-16T11:53:26.520Z,17.18
2023-05-16T11:58:29.808Z,17.76
2023-05-16T12:03:35.812Z,16.64
2023-05-16T12:08:40.390Z,18.16
2023-05-16T12:13:43.311Z,17.66
2023-05-16T12:18:46.577Z,18.05
2023-05-16T12:23:54.836Z,17.96
2023-05-16T12:29:00.846Z,19.26
2023-05-16T12:34:05.957Z,19.81
2023-05-16T12:39:13.974Z,18.38
2023-05-16T12:44:20.468Z,21.31
2023-05-16T12:49:23.474Z,22.08
2023-05-16T12:54:28.563Z,20.50
2023-05-16T12:59:31.454Z,19.87
2023-05-16T13:04:37.072Z,18.51
2023-05-16T13:09:42.614Z,17.83
2023-05-16T13:14:46.625Z,17.92
2023-05-16T13:19:53.576Z,17.45
2023-05-16T13:24:59.576Z,16.67
2023-05-16T13:30:03.654Z,16.84
2023-05-16T13:35:08.265Z,18.52
2023-05-16T13:40:14.852Z,20.46
2023-05-16T13:45:18.605Z,22.06
2023-05-16T13:50:23.179Z,21.58
2023-05-16T13:55:29.401Z,22.41
2023-05-16T14:00:44.232Z,25.16
2023-05-16T14:05:55.988Z,24.35
2023-05-16T14:11:02.687Z,25.81
2023-05-16T14:16:06.262Z,22.91
2023-05-16T14:21:09.209Z,19.94
2023-05-16T14:26:13.682Z,21.35
2023-05-16T14:31:18.118Z,19.62
2023-05-16T14:36:21.456Z,22.88
2023-05-16T14:41:27.936Z,27.07
2023-05-16T14:46:31.442Z,26.00
2023-05-16T14:51:34.691Z,28.37
2023-05-16T14:56:39.659Z,29.03
2023-05-16T15:16:09.074Z,24.74
2023-05-16T15:21:15.587Z,20.46
2023-05-16T15:26:18.899Z,19.40
2023-05-16T15:31:22.564Z,18.78
2023-05-16T15:36:27.186Z,25.95
2023-05-16T15:41:56.326Z,28.95
2023-05-16T15:46:52.970Z,30.46
2023-05-16T15:51:59.812Z,26.27
2023-05-16T15:57:03.819Z,24.35
2023-05-16T16:02:07.971Z,25.51
2023-05-16T16:07:12.686Z,19.93
2023-05-16T16:12:17.490Z,19.69
2023-05-16T16:17:21.117Z,18.48
2023-05-16T16:22:28.108Z,17.33
2023-05-16T16:27:30.885Z,17.22
2023-05-16T16:32:33.737Z,16.98
2023-05-16T16:37:40.653Z,16.43
2023-05-16T16:42:45.734Z,16.50
2023-05-16T16:47:50.604Z,22.06
2023-05-16T16:52:54.901Z,27.54
2023-05-16T16:57:57.859Z,28.52
2023-05-16T17:03:00.927Z,29.23
2023-05-16T17:08:05.877Z,31.17
2023-05-16T17:13:10.522Z,29.96
2023-05-16T17:18:14.676Z,29.75
2023-05-16T17:23:18.933Z,30.81
2023-05-16T17:28:25.016Z,26.50
2023-05-16T17:33:28.520Z,22.27
2023-05-16T17:38:33.228Z,19.46
2023-05-16T17:43:37.876Z,17.85
2023-05-16T17:48:40.657Z,17.29
2023-05-16T17:53:45.346Z,16.52
2023-05-16T17:58:48.539Z,15.88
2023-05-16T18:03:51.702Z,15.28
2023-05-16T18:08:56.939Z,15.24
2023-05-16T18:13:59.784Z,15.04
2023-05-16T18:19:04.918Z,14.63
2023-05-16T18:24:11.460Z,14.08
2023-05-16T18:29:15.935Z,13.71
2023-05-16T18:34:20.762Z,13.24
2023-05-16T18:39:24.957Z,12.99
2023-05-16T18:44:27.766Z,12.83
2023-05-16T18:49:33.421Z,12.47
2023-05-16T18:54:40.865Z,12.14
2023-05-16T18:59:43.684Z,11.96
2023-05-16T19:04:47.230Z,11.81
2023-05-16T19:09:51.991Z,11.54
2023-05-16T19:14:54.949Z,11.34
2023-05-16T19:19:58.137Z,11.24
2023-05-16T19:25:03.032Z,11.01
2023-05-16T19:30:07.489Z,10.95
2023-05-16T19:35:11.128Z,10.77
2023-05-16T19:40:17.268Z,10.67
2023-05-16T19:45:20.974Z,10.56
2023-05-16T19:50:23.988Z,10.41
2023-05-16T19:55:30.508Z,10.35
2023-05-16T20:00:33.758Z,10.27
2023-05-16T20:05:37.127Z,10.15
2023-05-16T20:10:41.457Z,10.09
2023-05-16T20:15:44.369Z,10.02
2023-05-16T20:20:47.211Z,9.95
2023-05-16T20:25:51.359Z,9.88
2023-05-16T20:30:54.309Z,9.85
2023-05-16T20:35:58.973Z,9.90
2023-05-16T20:41:04.614Z,9.88
2023-05-16T20:46:07.894Z,10.00
2023-05-16T20:51:10.781Z,10.03
2023-05-16T20:56:14.884Z,10.02
2023-05-16T21:01:17.691Z,10.05
2023-05-16T21:06:20.548Z,10.10
2023-05-16T21:11:24.982Z,10.14
2023-05-16T21:16:30.756Z,10.16
2023-05-16T21:21:33.548Z,10.17
2023-05-16T21:26:37.804Z,10.22
2023-05-16T21:31:40.957Z,10.20
2023-05-16T21:36:43.829Z,10.18
2023-05-16T21:41:47.957Z,10.18
2023-05-16T21:46:50.999Z,10.13
2023-05-16T21:51:53.768Z,10.03
2023-05-16T21:56:57.842Z,10.01
2023-05-16T22:02:00.741Z,9.89
2023-05-16T22:07:04.333Z,9.79
2023-05-16T22:12:09.295Z,9.70
2023-05-16T22:17:12.086Z,9.65
2023-05-16T22:22:14.976Z,9.53
2023-05-16T22:27:19.063Z,9.42
2023-05-16T22:32:22.249Z,9.33
2023-05-16T22:37:25.066Z,9.21
2023-05-16T22:42:30.383Z,9.03
2023-05-16T22:47:33.113Z,8.92
2023-05-16T22:52:40.988Z,8.80
2023-05-16T22:57:45.528Z,8.65
2023-05-16T23:02:48.401Z,8.50
2023-05-16T23:07:51.228Z,8.27
2023-05-16T23:12:55.415Z,8.05
2023-05-16T23:17:58.324Z,8.02
2023-05-16T23:23:01.650Z,7.86
2023-05-16T23:28:05.927Z,7.72
2023-05-16T23:33:08.837Z,7.53
2023-05-16T23:38:11.754Z,7.51
2023-05-16T23:43:16.407Z,7.41
2023-05-16T23:48:19.182Z,7.29
2023-05-16T23:53:27.910Z,7.21
2023-05-16T23:58:32.036Z,7.16
